createdAt,value
2019-03-22T00:02:13.916Z,31.20
2019-03-22T00:07:22.028Z,31.20
2019-03-22T00:12:30.522Z,31.30
2019-03-22T00:17:37.853Z,31.30
2019-03-22T00:22:48.064Z,31.30
2019-03-22T00:27:56.260Z,31.40
2019-03-22T00:33:04.449Z,31.50
2019-03-22T00:38:12.293Z,31.50
2019-03-22T00:43:20.394Z,31.50
2019-03-22T00:48:28.508Z,31.60
2019-03-22T00:53:36.262Z,31.70
2019-03-22T00:58:44.476Z,31.70
2019-03-22T01:03:51.409Z,31.80
2019-03-22T01:08:59.327Z,31.90
2019-03-22T01:14:07.698Z,31.90
2019-03-22T01:19:15.113Z,32.00
2019-03-22T01:24:22.607Z,32.10
2019-03-22T01:29:30.005Z,32.10
2019-03-22T01:34:37.347Z,32.20
2019-03-22T01:39:45.486Z,32.30
2019-03-22T01:44:54.267Z,32.30
2019-03-22T01:50:02.217Z,32.40
2019-03-22T01:55:09.725Z,32.20
2019-03-22T02:00:19.001Z,32.20
2019-03-22T02:05:28.605Z,32.30
2019-03-22T02:10:35.999Z,32.50
2019-03-22T02:15:43.578Z,32.50
2019-03-22T02:20:50.720Z,32.80
2019-03-22T02:25:58.871Z,32.70
2019-03-22T02:31:07.350Z,33.00
2019-03-22T02:36:15.803Z,33.00
2019-03-22T02:41:23.318Z,33.20
2019-03-22T02:46:30.424Z,33.30
2019-03-22T02:51:38.621Z,33.40
2019-03-22T02:56:47.274Z,33.40
2019-03-22T03:01:54.768Z,33.40
2019-03-22T03:07:09.114Z,33.60
2019-03-22T03:12:16.032Z,33.60
2019-03-22T03:17:23.896Z,33.70
2019-03-22T03:22:36.738Z,33.80
2019-03-22T03:27:44.091Z,33.90
2019-03-22T03:32:51.379Z,34.10
2019-03-22T03:38:00.002Z,34.20
2019-03-22T03:43:07.963Z,34.30
2019-03-22T03:48:17.154Z,34.40
2019-03-22T03:53:25.788Z,34.70
2019-03-22T03:58:53.353Z,35.00
2019-03-22T04:04:00.916Z,34.80
2019-03-22T04:09:09.066Z,35.10
2019-03-22T04:14:21.333Z,35.30
2019-03-22T04:19:29.439Z,35.50
2019-03-22T04:24:37.786Z,35.40
2019-03-22T04:29:45.847Z,35.50
2019-03-22T04:34:54.190Z,35.50
2019-03-22T04:40:01.830Z,35.60
2019-03-22T04:45:09.422Z,35.90
2019-03-22T04:50:17.249Z,36.10
2019-03-22T04:55:24.613Z,36.10
2019-03-22T05:00:31.660Z,36.40
2019-03-22T05:05:39.363Z,36.60
2019-03-22T05:10:47.010Z,36.80
2019-03-22T05:15:55.365Z,36.90
2019-03-22T05:21:03.457Z,37.10
2019-03-22T05:26:10.642Z,37.20
2019-03-22T05:31:20.054Z,37.40
2019-03-22T05:36:28.255Z,37.50
2019-03-22T05:41:37.400Z,37.30
2019-03-22T05:46:45.038Z,37.40
2019-03-22T05:51:52.001Z,37.40
2019-03-22T05:56:59.949Z,37.70
2019-03-22T06:02:07.978Z,37.90
2019-03-22T06:07:15.503Z,38.00
2019-03-22T06:12:23.905Z,38.10
2019-03-22T06:17:32.306Z,38.30
2019-03-22T06:22:41.087Z,38.40
2019-03-22T06:27:48.455Z,38.50
2019-03-22T06:33:01.348Z,38.60
2019-03-22T06:38:09.141Z,38.60
2019-03-22T06:43:16.613Z,38.70
2019-03-22T06:48:24.629Z,38.70
2019-03-22T06:53:43.770Z,38.80
2019-03-22T06:58:51.133Z,38.70
2019-03-22T07:03:59.739Z,38.80
2019-03-22T07:09:08.970Z,39.00
2019-03-22T07:14:16.566Z,39.10
2019-03-22T07:19:24.050Z,39.20
2019-03-22T07:24:30.249Z,39.40
2019-03-22T07:29:35.553Z,39.50
2019-03-22T07:34:41.548Z,39.50
2019-03-22T07:39:47.720Z,39.60
2019-03-22T07:44:54.309Z,39.60
2019-03-22T07:50:00.482Z,39.80
2019-03-22T07:55:06.671Z,39.90
2019-03-22T08:00:12.619Z,39.90
2019-03-22T08:05:17.977Z,39.90
2019-03-22T08:10:24.809Z,40.00
2019-03-22T08:15:31.400Z,40.00
2019-03-22T08:20:38.927Z,40.10
2019-03-22T08:25:45.360Z,40.20
2019-03-22T08:30:51.827Z,40.20
2019-03-22T08:35:59.918Z,40.20
2019-03-22T08:41:07.600Z,40.30
2019-03-22T08:46:13.961Z,40.20
2019-03-22T08:51:20.243Z,40.10
2019-03-22T08:56:26.747Z,40.30
2019-03-22T09:01:33.318Z,40.30
2019-03-22T09:06:39.934Z,40.30
2019-03-22T09:11:46.132Z,40.30
2019-03-22T09:16:52.468Z,40.40
2019-03-22T09:22:07.216Z,40.40
2019-03-22T09:27:13.836Z,40.30
2019-03-22T09:32:21.075Z,40.20
2019-03-22T09:37:27.586Z,40.30
2019-03-22T09:42:34.378Z,40.30
2019-03-22T09:47:43.462Z,40.20
2019-03-22T09:52:49.644Z,40.20
2019-03-22T09:57:55.375Z,40.20
2019-03-22T10:03:01.817Z,40.20
2019-03-22T10:08:07.729Z,40.20
2019-03-22T10:13:14.110Z,40.20
2019-03-22T10:18:19.471Z,40.20
2019-03-22T10:23:25.490Z,40.10
2019-03-22T10:28:31.059Z,40.00
2019-03-22T10:33:37.265Z,39.90
2019-03-22T10:38:43.544Z,39.80
2019-03-22T10:43:49.957Z,39.80
2019-03-22T10:48:56.132Z,39.80
2019-03-22T10:54:01.894Z,39.70
2019-03-22T10:59:11.221Z,39.70
2019-03-22T11:04:17.278Z,39.60
2019-03-22T11:09:23.277Z,39.50
2019-03-22T11:14:29.241Z,39.40
2019-03-22T11:19:35.277Z,39.30
2019-03-22T11:24:41.579Z,39.30
2019-03-22T11:29:47.775Z,39.20
2019-03-22T11:34:54.137Z,39.10
2019-03-22T11:39:59.729Z,39.00
2019-03-22T11:45:05.649Z,39.00
2019-03-22T11:50:12.037Z,38.90
2019-03-22T11:55:18.428Z,38.80
2019-03-22T12:00:25.218Z,38.70
2019-03-22T12:05:39.982Z,38.70
2019-03-22T12:10:39.624Z,38.50
2019-03-22T12:15:44.805Z,38.50
2019-03-22T12:20:51.543Z,38.40
2019-03-22T12:25:57.950Z,38.30
2019-03-22T12:31:04.118Z,38.20
2019-03-22T12:36:10.083Z,38.10
2019-03-22T12:41:17.090Z,38.10
2019-03-22T12:46:23.070Z,38.00
2019-03-22T12:51:29.186Z,37.90
2019-03-22T12:56:35.423Z,37.90
2019-03-22T13:01:41.781Z,37.80
2019-03-22T13:06:48.366Z,37.80
2019-03-22T13:11:54.782Z,37.70
2019-03-22T13:17:00.939Z,37.70
2019-03-22T13:22:07.101Z,37.60
2019-03-22T13:27:12.564Z,37.50
2019-03-22T13:32:19.287Z,37.50
2019-03-22T13:37:25.637Z,37.40
2019-03-22T13:42:31.199Z,37.30
2019-03-22T13:47:37.798Z,37.30
2019-03-22T13:52:44.178Z,37.20
2019-03-22T13:57:52.007Z,37.20
2019-03-22T14:03:03.257Z,37.20
2019-03-22T14:08:05.966Z,37.10
2019-03-22T14:13:12.337Z,37.10
2019-03-22T14:18:18.748Z,37.00
2019-03-22T14:23:25.112Z,37.00
2019-03-22T14:28:31.493Z,36.90
2019-03-22T14:33:37.868Z,36.80
2019-03-22T14:38:44.322Z,36.70
2019-03-22T14:43:50.854Z,36.60
2019-03-22T14:48:56.396Z,36.60
2019-03-22T14:54:02.386Z,36.50
2019-03-22T14:59:08.162Z,36.50
2019-03-22T15:04:14.316Z,36.40
2019-03-22T15:09:20.908Z,36.40
2019-03-22T15:14:26.545Z,36.40
2019-03-22T15:19:32.851Z,36.40
2019-03-22T15:24:38.189Z,36.30
2019-03-22T15:29:43.817Z,36.30
2019-03-22T15:34:52.176Z,36.20
2019-03-22T15:39:59.211Z,36.20
2019-03-22T15:45:06.004Z,36.10
2019-03-22T15:50:12.376Z,35.90
2019-03-22T15:55:18.747Z,35.90
2019-03-22T16:00:23.933Z,35.90
2019-03-22T16:05:30.282Z,35.80
2019-03-22T16:10:36.877Z,35.80
2019-03-22T16:15:42.825Z,35.70
2019-03-22T16:20:49.013Z,35.60
2019-03-22T16:25:55.786Z,35.50
2019-03-22T16:31:02.187Z,35.40
2019-03-22T16:36:07.660Z,35.30
2019-03-22T16:41:13.911Z,35.30
2019-03-22T16:46:20.104Z,35.20
2019-03-22T16:51:25.596Z,35.20
2019-03-22T16:56:32.043Z,35.10
2019-03-22T17:01:38.215Z,35.10
2019-03-22T17:06:44.395Z,35.00
2019-03-22T17:11:50.986Z,35.00
2019-03-22T17:16:57.150Z,34.90
2019-03-22T17:22:02.512Z,34.80
2019-03-22T17:27:08.688Z,34.70
2019-03-22T17:32:14.660Z,34.60
2019-03-22T17:37:21.041Z,34.50
2019-03-22T17:42:27.429Z,34.50
2019-03-22T17:47:34.606Z,34.40
2019-03-22T17:52:42.844Z,34.40
2019-03-22T17:57:49.447Z,34.30
2019-03-22T18:02:59.300Z,34.30
2019-03-22T18:08:04.980Z,34.20
2019-03-22T18:13:10.815Z,34.00
2019-03-22T18:18:17.252Z,34.00
2019-03-22T18:23:23.182Z,33.90
2019-03-22T18:28:29.364Z,33.90
2019-03-22T18:33:36.428Z,33.80
2019-03-22T18:38:42.937Z,33.80
2019-03-22T18:43:49.759Z,33.70
2019-03-22T18:48:55.888Z,33.60
2019-03-22T18:54:02.282Z,33.50
2019-03-22T18:59:08.458Z,33.50
2019-03-22T19:04:14.655Z,33.40
2019-03-22T19:09:21.214Z,33.40
2019-03-22T19:14:27.605Z,33.30
2019-03-22T19:19:33.808Z,33.20
2019-03-22T19:24:40.576Z,33.10
2019-03-22T19:29:45.906Z,33.10
2019-03-22T19:34:54.673Z,33.00
2019-03-22T19:40:00.330Z,32.90
2019-03-22T19:45:06.509Z,32.90
2019-03-22T19:50:13.075Z,32.80
2019-03-22T19:55:19.879Z,32.70
2019-03-22T20:00:25.890Z,32.70
2019-03-22T20:05:31.160Z,32.80
2019-03-22T20:10:36.525Z,32.70
2019-03-22T20:15:43.359Z,32.60
2019-03-22T20:20:49.276Z,32.60
2019-03-22T20:25:56.741Z,32.50
2019-03-22T20:31:02.907Z,32.50
2019-03-22T20:36:09.341Z,32.40
2019-03-22T20:41:14.588Z,32.30
2019-03-22T20:46:20.822Z,32.20
2019-03-22T20:51:27.484Z,32.20
2019-03-22T20:56:34.402Z,32.10
2019-03-22T21:01:39.952Z,32.20
2019-03-22T21:06:46.355Z,32.10
2019-03-22T21:11:52.552Z,32.00
2019-03-22T21:16:58.487Z,32.00
2019-03-22T21:22:04.472Z,31.90
2019-03-22T21:27:15.490Z,31.80
2019-03-22T21:32:18.236Z,31.80
2019-03-22T21:37:24.425Z,31.80
2019-03-22T21:42:29.995Z,31.80
2019-03-22T21:47:36.155Z,31.80
2019-03-22T21:52:42.126Z,31.70
2019-03-22T21:57:48.523Z,31.60
2019-03-22T22:02:54.895Z,31.50
2019-03-22T22:08:00.851Z,31.50
2019-03-22T22:13:07.439Z,31.40
2019-03-22T22:18:14.047Z,31.40
2019-03-22T22:23:20.499Z,31.40
2019-03-22T22:28:27.068Z,31.30
2019-03-22T22:33:33.779Z,31.30
2019-03-22T22:38:39.069Z,31.20
2019-03-22T22:43:45.943Z,31.10
2019-03-22T22:48:52.320Z,31.10
2019-03-22T22:53:58.281Z,31.00
2019-03-22T22:59:05.485Z,30.90
2019-03-22T23:04:11.672Z,31.00
2019-03-22T23:09:18.060Z,30.90
2019-03-22T23:14:23.517Z,30.90
2019-03-22T23:19:30.186Z,30.80
2019-03-22T23:24:37.396Z,30.70
2019-03-22T23:29:44.598Z,30.70
2019-03-22T23:34:58.621Z,30.60
2019-03-22T23:39:57.757Z,30.70
2019-03-22T23:45:03.316Z,30.60
2019-03-22T23:50:08.763Z,30.70
2019-03-22T23:55:15.247Z,30.60
